Time;durP1;ratioP1;P1;durP2;ratioP2;P2;SDS_P1;SDS_P2;PMS_P1;PMS_P2;Temp;Humidity;BMP_temperature;BMP_pressure;BME280_temperature;BME280_humidity;BME280_pressure;Samples;Min_cycle;Max_cycle;Signal;HPM_P1;HPM_P2
2023/07/27 00:00:43;;;;;;;3.30;2.42;;;;;;;-141.84;64.69;20683.78;5069454;28;20291;-64
2023/07/27 00:03:12;;;;;;;3.90;2.45;;;;;;;-141.84;64.81;20643.13;5086961;28;20236;-64
2023/07/27 00:05:41;;;;;;;3.08;2.78;;;;;;;-141.84;65.08;20641.09;5087550;28;20230;-65
2023/07/27 00:08:09;;;;;;;4.18;2.80;;;;;;;-141.84;65.83;20578.09;5062199;28;20686;-66
2023/07/27 00:10:39;;;;;;;4.97;2.55;;;;;;;-141.84;66.33;20576.03;5068360;28;20312;-65
2023/07/27 00:13:08;;;;;;;2.70;2.42;;;;;;;-141.84;66.84;20588.25;5083151;28;20235;-65
2023/07/27 00:15:36;;;;;;;2.50;2.28;;;;;;;-141.84;66.68;20606.53;5063594;28;20311;-64
2023/07/27 00:18:04;;;;;;;2.55;2.35;;;;;;;-141.84;66.57;20543.53;5056740;28;20232;-65
2023/07/27 00:20:33;;;;;;;3.25;2.95;;;;;;;-141.84;66.17;20586.22;5064382;28;20225;-64
2023/07/27 00:23:01;;;;;;;3.00;2.70;;;;;;;-141.84;65.55;20582.16;5064939;28;20319;-64
2023/07/27 00:25:30;;;;;;;3.03;2.30;;;;;;;-141.84;66.52;20551.66;5069642;28;20315;-64
2023/07/27 00:28:00;;;;;;;2.85;2.55;;;;;;;-141.84;66.73;20547.59;5073999;28;20304;-63
2023/07/27 00:30:28;;;;;;;3.00;2.70;;;;;;;-141.84;66.31;20549.63;5065589;28;20715;-64
2023/07/27 00:32:57;;;;;;;3.05;2.65;;;;;;;-141.84;67.20;20535.41;5084748;28;20818;-63
2023/07/27 00:35:25;;;;;;;2.58;2.38;;;;;;;-141.84;66.94;20527.25;5084386;28;20230;-64
2023/07/27 00:37:54;;;;;;;3.10;2.50;;;;;;;-141.84;67.45;20529.28;5058177;28;20220;-65
2023/07/27 00:40:22;;;;;;;3.25;2.30;;;;;;;-141.84;67.78;20525.22;5064319;28;20300;-64
2023/07/27 00:42:51;;;;;;;3.42;2.60;;;;;;;-141.84;68.15;20500.84;5063791;28;20231;-65
2023/07/27 00:45:21;;;;;;;2.70;2.50;;;;;;;-141.84;68.75;20492.72;5063655;28;20329;-64
2023/07/27 00:47:50;;;;;;;2.70;2.42;;;;;;;-141.84;69.12;20468.31;5056188;28;20236;-64
2023/07/27 00:50:18;;;;;;;2.95;2.30;;;;;;;-141.84;69.71;20460.19;5059517;28;20228;-65
2023/07/27 00:52:47;;;;;;;2.40;2.20;;;;;;;-141.84;70.23;20397.16;5072506;28;20282;-64
2023/07/27 00:55:15;;;;;;;4.47;2.70;;;;;;;-141.84;68.60;20492.72;5071951;28;20314;-64
2023/07/27 00:57:44;;;;;;;2.83;2.53;;;;;;;-141.84;68.48;20431.72;5078194;28;20247;-63
2023/07/27 01:00:14;;;;;;;2.72;2.50;;;;;;;-141.84;68.73;20443.91;5061278;28;20332;-64
2023/07/27 01:02:44;;;;;;;3.30;2.58;;;;;;;-141.84;69.36;20429.69;5063728;28;20320;-65
2023/07/27 01:05:13;;;;;;;2.70;2.50;;;;;;;-141.84;70.33;20423.59;5079971;28;20661;-65
2023/07/27 01:07:41;;;;;;;3.28;2.70;;;;;;;-141.84;70.22;20407.34;5063573;28;20301;-65
2023/07/27 01:10:11;;;;;;;2.80;2.60;;;;;;;-141.84;70.76;20350.41;5076169;28;20705;-65
2023/07/27 01:12:47;;;;;;;3.05;2.60;;;;;;;-141.84;71.54;20395.13;5066531;28;20294;-66
2023/07/27 01:15:19;;;;;;;2.60;2.40;;;;;;;-141.84;70.64;20391.06;5063441;28;20275;-64
2023/07/27 01:17:55;;;;;;;2.88;2.60;;;;;;;-141.84;71.24;20384.97;5049216;28;20733;-65
2023/07/27 01:20:29;;;;;;;2.88;2.58;;;;;;;-141.84;72.01;20356.50;5063329;28;20224;-65
2023/07/27 01:23:25;;;;;;;2.70;2.50;;;;;;;-141.84;71.84;20387.00;5063763;28;20742;-66
2023/07/27 01:26:26;;;;;;;2.50;2.30;;;;;;;-141.84;71.62;20358.56;5039298;28;20303;-64
2023/07/27 01:29:08;;;;;;;3.30;2.70;;;;;;;-141.84;71.25;20360.59;5040857;28;20221;-64
2023/07/27 01:31:42;;;;;;;2.92;2.35;;;;;;;-141.84;71.71;20358.56;5043233;28;20653;-64
2023/07/27 01:34:17;;;;;;;2.97;2.72;;;;;;;-141.84;71.39;20378.88;5056986;28;20211;-65
2023/07/27 01:36:50;;;;;;;3.27;2.67;;;;;;;-141.84;70.85;20387.00;5063817;28;20680;-64
2023/07/27 01:39:20;;;;;;;2.63;2.42;;;;;;;-141.84;70.95;20397.16;5063095;28;20793;-65
2023/07/27 01:41:51;;;;;;;3.00;2.70;;;;;;;-141.84;70.92;20364.66;5070625;28;20301;-64
2023/07/27 01:44:20;;;;;;;3.20;2.80;;;;;;;-141.84;71.28;20356.50;5067296;28;20781;-64
2023/07/27 01:46:51;;;;;;;3.23;2.60;;;;;;;-141.84;71.68;20334.16;5062971;28;20240;-63
2023/07/27 01:49:21;;;;;;;2.80;2.60;;;;;;;-141.84;71.93;20324.00;5055053;28;20228;-64
2023/07/27 01:51:51;;;;;;;3.00;2.70;;;;;;;-141.84;72.10;20344.31;5055355;28;20312;-64
2023/07/27 01:54:20;;;;;;;3.20;2.87;;;;;;;-141.84;72.25;20301.63;5063319;28;20228;-65
2023/07/27 01:56:50;;;;;;;2.95;2.75;;;;;;;-141.84;72.39;20317.91;5063132;28;20784;-66
2023/07/27 01:59:19;;;;;;;4.27;2.93;;;;;;;-141.84;71.83;20376.84;5062705;28;20759;-64
2023/07/27 02:01:50;;;;;;;3.72;3.03;;;;;;;-141.84;72.25;20311.78;5056387;28;20735;-63
2023/07/27 02:04:19;;;;;;;2.80;2.60;;;;;;;-141.84;72.64;20321.97;5063707;28;20216;-64
2023/07/27 02:06:51;;;;;;;3.03;2.83;;;;;;;-141.84;72.90;20328.06;5063650;28;20224;-64
2023/07/27 02:09:20;;;;;;;2.83;2.63;;;;;;;-141.84;73.77;20319.94;5063186;28;20254;-64
2023/07/27 02:11:55;;;;;;;4.10;3.00;;;;;;;-141.84;74.10;20273.19;5055412;28;20231;-64
2023/07/27 02:14:28;;;;;;;3.47;2.80;;;;;;;-141.84;73.62;20252.84;5062606;28;20274;-64
2023/07/27 02:17:03;;;;;;;2.95;2.75;;;;;;;-141.84;74.00;20260.97;5062204;28;20728;-65
2023/07/27 02:19:33;;;;;;;3.23;2.90;;;;;;;-141.84;74.46;20295.53;5061794;28;20722;-64
2023/07/27 02:22:04;;;;;;;3.30;3.00;;;;;;;-141.84;74.45;20277.25;5056091;28;20204;-65
2023/07/27 02:24:33;;;;;;;4.10;3.70;;;;;;;-141.84;74.94;20289.44;5062823;28;20660;-65
2023/07/27 02:27:02;;;;;;;5.30;3.70;;;;;;;-141.84;74.56;20281.31;5062362;28;20259;-64
2023/07/27 02:29:30;;;;;;;3.70;3.33;;;;;;;-141.84;74.11;20244.72;5062338;28;20239;-64
2023/07/27 02:32:00;;;;;;;4.57;3.57;;;;;;;-141.84;74.13;20275.22;5054970;28;20311;-64
2023/07/27 02:34:29;;;;;;;3.43;3.13;;;;;;;-141.84;73.36;20248.78;5062454;28;20292;-64
2023/07/27 02:36:57;;;;;;;4.00;3.23;;;;;;;-141.84;73.61;20281.31;5062594;28;20208;-63
2023/07/27 02:39:26;;;;;;;3.30;3.10;;;;;;;-141.84;73.73;20283.34;5061823;28;20260;-64
2023/07/27 02:41:54;;;;;;;3.50;3.20;;;;;;;-141.84;74.15;20250.81;5053966;28;20220;-64
2023/07/27 02:44:23;;;;;;;3.72;3.42;;;;;;;-141.84;74.06;20265.03;5062807;28;20220;-65
2023/07/27 02:46:51;;;;;;;4.50;3.60;;;;;;;-141.84;74.61;20246.75;5062409;28;20259;-64
2023/07/27 02:49:21;;;;;;;4.20;3.30;;;;;;;-141.84;74.73;20254.88;5062250;28;20311;-64
2023/07/27 02:51:49;;;;;;;4.20;3.80;;;;;;;-141.84;75.11;20273.19;5055093;28;20244;-64
2023/07/27 02:54:18;;;;;;;4.77;4.10;;;;;;;-141.84;74.52;20289.44;5062219;28;20232;-65
2023/07/27 02:56:46;;;;;;;4.27;3.87;;;;;;;-141.84;74.76;20313.84;5062291;28;20232;-65
2023/07/27 02:59:15;;;;;;;3.70;3.40;;;;;;;-141.84;75.05;20271.16;5062017;28;20311;-65
2023/07/27 03:01:43;;;;;;;3.63;3.33;;;;;;;-141.84;75.56;20275.22;5062186;28;20220;-64
2023/07/27 03:04:12;;;;;;;4.67;3.60;;;;;;;-141.84;75.57;20295.53;5077435;28;20307;-65
2023/07/27 03:06:43;;;;;;;4.17;3.70;;;;;;;-141.84;75.00;20289.44;5075583;28;20244;-65
2023/07/27 03:09:11;;;;;;;5.70;3.80;;;;;;;-141.84;74.66;20273.19;5062106;28;20683;-66
2023/07/27 03:11:40;;;;;;;4.10;3.67;;;;;;;-141.84;74.76;20307.72;5062019;28;20328;-65
2023/07/27 03:14:08;;;;;;;4.30;3.90;;;;;;;-141.84;74.43;20338.22;5054110;28;20796;-66
2023/07/27 03:16:37;;;;;;;4.10;3.70;;;;;;;-141.84;74.85;20332.13;5061676;28;20263;-65
2023/07/27 03:19:05;;;;;;;4.37;4.03;;;;;;;-141.84;74.62;20309.75;5062417;28;20297;-65
2023/07/27 03:21:34;;;;;;;4.07;3.67;;;;;;;-141.84;74.97;20315.88;5062204;28;20308;-65
2023/07/27 03:24:04;;;;;;;3.80;3.50;;;;;;;-141.84;75.21;20283.34;5054575;28;20238;-64
2023/07/27 03:26:33;;;;;;;4.57;3.77;;;;;;;-141.84;74.61;20315.88;5062171;28;20773;-65
2023/07/27 03:29:02;;;;;;;5.07;3.70;;;;;;;-141.84;74.95;20326.03;5061778;28;20750;-64
2023/07/27 03:31:30;;;;;;;5.10;3.80;;;;;;;-141.84;75.19;20340.25;5061586;28;20263;-65
2023/07/27 03:33:59;;;;;;;4.10;3.57;;;;;;;-141.84;75.22;20291.47;5054095;28;20207;-64
2023/07/27 03:36:27;;;;;;;4.43;4.03;;;;;;;-141.84;75.35;20315.88;5070875;28;20252;-64
2023/07/27 03:38:55;;;;;;;3.90;3.50;;;;;;;-141.84;76.32;20313.84;5062081;28;20259;-64
2023/07/27 03:41:25;;;;;;;4.50;4.10;;;;;;;-141.84;76.53;20313.84;5061785;28;20282;-64
2023/07/27 03:43:54;;;;;;;4.27;3.87;;;;;;;-141.84;75.37;20352.44;5054147;28;20327;-65
2023/07/27 03:46:22;;;;;;;4.40;4.00;;;;;;;-141.84;75.52;20346.34;5062211;28;20296;-65
2023/07/27 03:48:52;;;;;;;4.35;3.95;;;;;;;-141.84;73.43;20417.50;5066187;28;20232;-65
2023/07/27 03:51:20;;;;;;;3.93;3.63;;;;;;;-141.84;74.86;20378.88;5061928;28;20323;-64
2023/07/27 03:53:50;;;;;;;3.73;3.43;;;;;;;-141.84;75.94;20356.50;5056642;28;20255;-65
2023/07/27 03:56:19;;;;;;;4.10;3.75;;;;;;;-141.84;75.91;20368.72;5065620;28;20267;-64
2023/07/27 03:58:48;;;;;;;4.63;3.80;;;;;;;-141.84;74.32;20399.19;5065478;28;20328;-65
2023/07/27 04:01:17;;;;;;;4.22;3.83;;;;;;;-141.84;75.09;20395.13;5064876;28;20212;-65
2023/07/27 04:03:45;;;;;;;5.03;4.13;;;;;;;-141.84;73.75;20399.19;5064071;28;20231;-64
2023/07/27 04:06:14;;;;;;;5.05;3.83;;;;;;;-141.84;73.04;20460.19;5062308;28;20395;-66
2023/07/27 04:08:42;;;;;;;6.43;3.40;;;;;;;-141.84;72.29;20484.56;5065268;28;20232;-65
2023/07/27 04:11:11;;;;;;;3.80;3.40;;;;;;;-141.84;72.83;20474.41;5065065;28;20239;-65
2023/07/27 04:13:39;;;;;;;3.50;3.20;;;;;;;-141.84;70.33;20580.13;5064835;28;20311;-65
2023/07/27 04:16:09;;;;;;;3.75;3.45;;;;;;;-141.84;71.02;20559.78;5058101;28;20266;-64
2023/07/27 04:18:38;;;;;;;3.65;3.33;;;;;;;-141.84;69.87;20582.16;5065145;28;20232;-64
2023/07/27 04:21:06;;;;;;;3.70;3.40;;;;;;;-141.84;69.31;20630.94;5064802;28;20293;-64
2023/07/27 04:23:35;;;;;;;3.45;3.15;;;;;;;-141.84;69.36;20628.91;5064745;28;20228;-64
2023/07/27 04:26:03;;;;;;;4.43;3.65;;;;;;;-141.84;68.78;20622.81;5057374;28;20231;-64
2023/07/27 04:28:32;;;;;;;3.42;2.97;;;;;;;-141.84;69.44;20586.22;5065097;28;20212;-64
2023/07/27 04:31:00;;;;;;;3.35;2.90;;;;;;;-141.84;69.49;20635.00;5065630;28;20212;-64
2023/07/27 04:33:30;;;;;;;3.28;2.97;;;;;;;-141.84;67.87;20677.69;5064572;28;20225;-65
2023/07/27 04:36:01;;;;;;;3.72;3.10;;;;;;;-141.84;67.65;20700.03;5056339;28;20239;-65
2023/07/27 04:38:29;;;;;;;4.07;3.20;;;;;;;-141.84;66.61;20736.63;5065079;28;20301;-65
2023/07/27 04:40:58;;;;;;;3.13;2.92;;;;;;;-141.84;67.08;20695.97;5064937;28;20271;-63
2023/07/27 04:43:27;;;;;;;2.60;2.40;;;;;;;-141.84;67.47;20726.47;5064252;28;20310;-65
2023/07/27 04:45:55;;;;;;;3.30;3.00;;;;;;;-141.84;67.63;20702.09;5056878;28;20287;-65
2023/07/27 04:48:24;;;;;;;2.97;2.78;;;;;;;-141.84;66.17;20742.75;5064403;28;20336;-64
2023/07/27 04:50:53;;;;;;;3.53;3.13;;;;;;;-141.84;65.36;20769.16;5064322;28;20235;-64
2023/07/27 04:53:23;;;;;;;3.78;2.92;;;;;;;-141.84;66.45;20732.56;5064101;28;20228;-64
2023/07/27 04:55:51;;;;;;;6.88;3.08;;;;;;;-141.84;65.65;20769.16;5056166;28;20312;-64
2023/07/27 04:58:20;;;;;;;4.68;2.92;;;;;;;-141.84;64.70;20805.75;5083035;28;20211;-64
2023/07/27 05:00:54;;;;;;;4.90;3.13;;;;;;;-141.84;66.26;20752.91;5085127;28;20299;-64
2023/07/27 05:03:23;;;;;;;3.20;2.83;;;;;;;-141.84;66.59;20704.13;5065144;28;20678;-64
2023/07/27 05:05:54;;;;;;;4.10;2.78;;;;;;;-141.84;67.37;20722.41;5063848;28;20323;-65
2023/07/27 05:08:23;;;;;;;2.90;2.65;;;;;;;-141.84;67.63;20734.59;5083353;28;20310;-65
2023/07/27 05:10:51;;;;;;;2.90;2.70;;;;;;;-141.84;66.77;20773.22;5083974;28;20654;-65
2023/07/27 05:13:20;;;;;;;4.65;2.90;;;;;;;-141.84;66.35;20848.44;5071085;28;20227;-64
2023/07/27 05:15:49;;;;;;;3.20;2.90;;;;;;;-141.84;65.59;20850.47;5046820;28;20213;-64
2023/07/27 05:18:17;;;;;;;3.17;2.83;;;;;;;-141.84;64.15;20876.91;5062889;28;20239;-63
2023/07/27 05:20:46;;;;;;;3.15;2.65;;;;;;;-141.84;63.83;20887.06;5069832;28;20297;-65
2023/07/27 05:23:19;;;;;;;4.55;2.88;;;;;;;-141.84;63.18;20958.22;5079055;28;20232;-66
2023/07/27 05:25:48;;;;;;;3.47;2.85;;;;;;;-141.84;61.87;20976.53;5060427;28;20302;-65
2023/07/27 05:28:18;;;;;;;3.25;2.70;;;;;;;-141.84;60.91;21072.06;5082586;28;20230;-65
2023/07/27 05:30:47;;;;;;;2.78;2.58;;;;;;;-141.84;59.22;21171.69;5063730;28;20243;-65
2023/07/27 05:33:15;;;;;;;2.38;2.17;;;;;;;-141.84;59.71;21163.56;5043069;28;20407;-66
2023/07/27 05:35:49;;;;;;;2.75;2.55;;;;;;;-141.84;59.49;21177.78;5061355;28;20248;-65
2023/07/27 05:38:19;;;;;;;2.50;2.30;;;;;;;-141.84;59.96;21104.59;5063172;28;20264;-63
2023/07/27 05:40:47;;;;;;;3.80;2.70;;;;;;;-141.84;60.25;21070.03;5063763;28;20220;-63
2023/07/27 05:43:16;;;;;;;3.20;2.90;;;;;;;-141.84;61.78;20996.84;5062466;28;20664;-65
2023/07/27 05:45:45;;;;;;;4.45;2.72;;;;;;;-141.84;62.28;21002.94;5062867;28;20219;-65
2023/07/27 05:48:14;;;;;;;2.67;2.45;;;;;;;-141.84;60.58;21070.03;5064964;28;20220;-65
2023/07/27 05:50:42;;;;;;;2.42;2.22;;;;;;;-141.84;61.71;21013.13;5074058;28;20318;-65
2023/07/27 05:53:10;;;;;;;3.47;2.90;;;;;;;-141.84;60.75;21017.19;5068271;28;20216;-65
2023/07/27 05:55:41;;;;;;;3.13;2.70;;;;;;;-141.84;60.98;20992.78;5069607;28;20559;-65
2023/07/27 05:58:09;;;;;;;3.20;2.90;;;;;;;-141.84;61.66;21011.09;5070767;28;20581;-65
2023/07/27 06:00:59;;;;;;;3.00;2.50;;;;;;;-141.84;61.43;21002.94;5068232;28;20313;-66
2023/07/27 06:03:27;;;;;;;3.40;2.30;;;;;;;-141.84;61.29;21029.38;5080387;28;20315;-65
2023/07/27 06:05:56;;;;;;;2.60;2.40;;;;;;;-141.84;60.60;21051.75;5072803;28;20330;-66
2023/07/27 06:08:25;;;;;;;3.20;2.80;;;;;;;-141.84;60.44;21114.75;5063198;28;20319;-64
2023/07/27 06:11:03;;;;;;;6.22;3.03;;;;;;;-141.84;57.47;21263.19;5083447;28;20278;-64
2023/07/27 06:13:33;;;;;;;4.72;2.50;;;;;;;-141.84;58.00;21255.03;5080895;28;20200;-64
2023/07/27 06:16:02;;;;;;;2.60;2.40;;;;;;;-141.84;57.61;21277.41;5053752;28;20212;-65
2023/07/27 06:18:31;;;;;;;3.35;2.40;;;;;;;-141.84;57.35;21326.22;5062554;28;20344;-66
2023/07/27 06:21:00;;;;;;;2.42;2.10;;;;;;;-141.84;57.20;21277.41;5062397;28;20264;-64
2023/07/27 06:23:28;;;;;;;2.95;2.55;;;;;;;-141.84;56.29;21316.03;5078498;28;20258;-64
2023/07/27 06:25:57;;;;;;;3.00;2.67;;;;;;;-141.84;56.57;21297.75;5060539;28;20724;-65
2023/07/27 06:28:27;;;;;;;3.47;2.38;;;;;;;-141.84;56.67;21275.38;5062113;28;20208;-65
2023/07/27 06:30:55;;;;;;;2.50;2.30;;;;;;;-141.84;56.34;21293.69;5073605;28;20314;-65
2023/07/27 06:33:24;;;;;;;2.50;2.22;;;;;;;-141.84;56.98;21267.25;5073006;28;20220;-65
2023/07/27 06:35:52;;;;;;;2.28;2.08;;;;;;;-141.84;56.71;21322.13;5060834;28;20231;-65
2023/07/27 06:38:21;;;;;;;3.38;2.28;;;;;;;-141.84;57.06;21326.22;5077407;28;20229;-67
2023/07/27 06:40:49;;;;;;;3.85;2.25;;;;;;;-141.84;55.89;21383.13;5061547;28;20315;-66
2023/07/27 06:43:18;;;;;;;3.13;2.50;;;;;;;-141.84;55.66;21421.75;5061512;28;20263;-65
2023/07/27 06:45:48;;;;;;;2.90;2.63;;;;;;;-141.84;55.88;21401.44;5058813;28;20240;-64
2023/07/27 06:48:17;;;;;;;2.60;2.40;;;;;;;-141.84;55.93;21403.47;5064986;28;20280;-65
2023/07/27 06:50:45;;;;;;;2.72;2.33;;;;;;;-141.84;55.92;21421.75;5063808;28;20346;-65
2023/07/27 06:53:14;;;;;;;2.58;2.38;;;;;;;-141.84;55.98;21431.94;5061846;28;20283;-65
2023/07/27 06:55:42;;;;;;;3.35;2.60;;;;;;;-141.84;55.46;21488.88;5062116;28;20272;-64
2023/07/27 06:58:11;;;;;;;3.45;2.17;;;;;;;-141.84;54.57;21509.19;5056121;28;20751;-64
2023/07/27 07:00:39;;;;;;;2.55;2.30;;;;;;;-141.84;55.59;21456.34;5074225;28;20319;-64
2023/07/27 07:03:09;;;;;;;2.78;2.45;;;;;;;-141.84;55.00;21486.81;5071031;28;20255;-65
2023/07/27 07:05:38;;;;;;;2.58;2.38;;;;;;;-141.84;55.33;21509.19;5050376;28;20243;-64
2023/07/27 07:08:06;;;;;;;2.95;2.08;;;;;;;-141.84;55.71;21472.59;5059939;28;20669;-64
2023/07/27 07:10:35;;;;;;;5.25;2.58;;;;;;;-141.84;54.91;21527.50;5076507;28;20232;-65
2023/07/27 07:13:04;;;;;;;4.53;2.90;;;;;;;-141.84;54.74;21505.13;5064927;28;20299;-64
2023/07/27 07:15:32;;;;;;;4.07;2.35;;;;;;;-141.84;54.94;21547.81;5048418;28;20696;-64
2023/07/27 07:18:01;;;;;;;2.55;2.35;;;;;;;-141.84;54.08;21588.50;5053928;28;20236;-64
2023/07/27 07:20:31;;;;;;;2.70;2.50;;;;;;;-141.84;53.93;21606.78;5062205;28;20228;-65
2023/07/27 07:22:59;;;;;;;7.03;2.58;;;;;;;-141.84;52.72;21726.75;5066638;28;20330;-65
2023/07/27 07:25:28;;;;;;;3.13;2.60;;;;;;;-141.84;52.61;21773.53;5061746;28;20225;-64
2023/07/27 07:27:56;;;;;;;2.92;2.50;;;;;;;-141.84;50.66;21877.22;5071985;28;20208;-66
2023/07/27 07:30:27;;;;;;;2.50;2.30;;;;;;;-141.84;51.43;21818.25;5073065;28;20231;-64
2023/07/27 07:32:57;;;;;;;2.60;2.40;;;;;;;-141.84;51.86;21726.75;5065294;28;20232;-65
2023/07/27 07:35:30;;;;;;;3.58;2.50;;;;;;;-141.84;52.63;21700.31;5065509;28;20298;-65
2023/07/27 07:37:58;;;;;;;3.85;2.80;;;;;;;-141.84;53.46;21643.38;5057398;28;20303;-65
2023/07/27 07:40:27;;;;;;;2.97;2.42;;;;;;;-141.84;53.73;21663.72;5074163;28;20230;-64
2023/07/27 07:42:55;;;;;;;3.00;2.22;;;;;;;-141.84;53.55;21667.78;5078514;28;20209;-64
2023/07/27 07:45:24;;;;;;;2.92;2.58;;;;;;;-141.84;53.40;21741.00;5064920;28;20489;-64
2023/07/27 07:47:52;;;;;;;4.32;2.92;;;;;;;-141.84;52.11;21789.78;5058054;28;20252;-65
2023/07/27 07:50:21;;;;;;;2.80;2.60;;;;;;;-141.84;51.30;21842.66;5072548;28;20282;-64
2023/07/27 07:52:51;;;;;;;2.80;2.53;;;;;;;-141.84;50.97;21844.69;5065176;28;20742;-65
2023/07/27 07:55:23;;;;;;;3.22;2.55;;;;;;;-141.84;50.87;21858.94;5045540;28;20205;-65
2023/07/27 07:57:51;;;;;;;2.88;2.60;;;;;;;-141.84;51.20;21848.75;5056065;28;20746;-65
2023/07/27 08:00:20;;;;;;;3.17;2.25;;;;;;;-141.84;51.01;21879.25;5081037;28;20227;-64
2023/07/27 08:02:48;;;;;;;3.58;2.33;;;;;;;-141.84;50.97;21897.56;5070194;28;20328;-64
2023/07/27 08:05:17;;;;;;;3.28;2.20;;;;;;;-141.84;51.75;21901.63;5069745;28;20235;-64
2023/07/27 08:07:46;;;;;;;4.15;2.25;;;;;;;-141.84;51.09;21879.25;5073263;28;20307;-65
2023/07/27 08:10:16;;;;;;;3.03;2.22;;;;;;;-141.84;50.21;21928.06;5070927;28;20287;-65
2023/07/27 08:12:45;;;;;;;3.00;2.53;;;;;;;-141.84;50.11;21980.94;5064877;28;20255;-64
2023/07/27 08:15:13;;;;;;;3.03;2.30;;;;;;;-141.84;48.96;22054.13;5057840;28;20612;-64
2023/07/27 08:17:42;;;;;;;2.90;2.60;;;;;;;-141.84;49.14;22035.84;5064595;28;20228;-64
2023/07/27 08:20:12;;;;;;;2.70;2.50;;;;;;;-141.84;48.12;22043.97;5042017;28;20242;-63
2023/07/27 08:22:40;;;;;;;2.85;2.42;;;;;;;-141.84;48.09;22066.34;5067480;28;20294;-64
2023/07/27 08:25:09;;;;;;;2.78;1.95;;;;;;;-141.84;48.10;22070.41;5084860;28;20301;-64
2023/07/27 08:27:50;;;;;;;3.40;2.70;;;;;;;-141.84;47.37;22076.50;5057010;28;20316;-64
2023/07/27 08:30:20;;;;;;;5.85;2.72;;;;;;;-141.84;47.93;22109.03;5084932;28;20234;-64
2023/07/27 08:32:48;;;;;;;3.28;2.47;;;;;;;-141.84;48.22;22041.94;5065092;28;20627;-65
2023/07/27 08:35:17;;;;;;;3.30;2.40;;;;;;;-141.84;47.93;22123.28;5064639;28;20224;-64
2023/07/27 08:37:45;;;;;;;2.65;2.45;;;;;;;-141.84;47.95;22084.66;5077899;28;20315;-66
2023/07/27 08:40:15;;;;;;;3.10;2.38;;;;;;;-141.84;48.10;22086.69;5070132;28;20291;-64
2023/07/27 08:42:44;;;;;;;2.42;2.10;;;;;;;-141.84;47.83;22123.28;5064549;28;20308;-63
2023/07/27 08:45:16;;;;;;;4.50;2.55;;;;;;;-141.84;47.83;22137.50;5063811;28;20233;-66
2023/07/27 08:47:45;;;;;;;3.08;2.50;;;;;;;-141.84;47.51;22121.25;5055329;28;20240;-65
2023/07/27 08:50:14;;;;;;;3.75;2.65;;;;;;;-141.84;47.41;22235.13;5073133;28;20228;-64
2023/07/27 08:52:43;;;;;;;4.32;2.42;;;;;;;-141.84;47.33;22257.50;5072991;28;20298;-64
2023/07/27 08:55:11;;;;;;;2.30;2.10;;;;;;;-141.84;46.48;22332.75;5065053;28;20244;-64
2023/07/27 08:57:40;;;;;;;4.15;2.47;;;;;;;-141.84;46.43;22285.97;5068076;28;20255;-64
2023/07/27 09:00:10;;;;;;;3.22;2.50;;;;;;;-141.84;47.12;22202.59;5074513;28;20328;-64
2023/07/27 09:02:40;;;;;;;3.10;2.35;;;;;;;-141.84;47.32;22119.22;5063336;28;20232;-64
2023/07/27 09:05:11;;;;;;;3.17;2.70;;;;;;;-141.84;48.67;21982.97;5067585;28;20297;-65
2023/07/27 09:07:40;;;;;;;2.50;2.30;;;;;;;-141.84;49.08;21989.06;5082597;28;20307;-65
2023/07/27 09:10:10;;;;;;;2.58;2.38;;;;;;;-141.84;48.85;22033.81;5058128;28;20300;-64
2023/07/27 09:12:41;;;;;;;3.78;2.85;;;;;;;-141.84;49.52;22066.34;5079074;28;20652;-64
2023/07/27 09:15:13;;;;;;;4.55;2.55;;;;;;;-141.84;48.93;22082.63;5072669;28;20220;-65
2023/07/27 09:17:44;;;;;;;2.85;2.20;;;;;;;-141.84;49.83;22072.44;5062702;28;20303;-64
2023/07/27 09:20:14;;;;;;;3.70;2.30;;;;;;;-141.84;48.12;22190.38;5062642;28;20667;-63
2023/07/27 09:22:45;;;;;;;4.05;2.30;;;;;;;-141.84;49.40;22054.13;5072284;28;20223;-63
2023/07/27 09:25:21;;;;;;;2.70;2.42;;;;;;;-141.84;49.53;21952.47;5072540;28;20228;-64
2023/07/27 09:27:53;;;;;;;2.90;2.65;;;;;;;-141.84;50.54;21970.78;5056530;28;20244;-65
2023/07/27 09:30:24;;;;;;;5.05;2.42;;;;;;;-141.84;48.58;22021.59;5063384;28;20282;-65
2023/07/27 09:32:54;;;;;;;2.88;2.40;;;;;;;-141.84;49.29;21980.94;5070216;28;20749;-65
2023/07/27 09:35:23;;;;;;;3.28;2.30;;;;;;;-141.84;48.89;21964.66;5077500;28;20235;-65
2023/07/27 09:37:52;;;;;;;4.75;2.33;;;;;;;-141.84;49.83;21926.03;5059136;28;20622;-64
2023/07/27 09:40:24;;;;;;;3.47;2.50;;;;;;;-141.84;50.09;21952.47;5081617;28;20251;-64
2023/07/27 09:42:53;;;;;;;4.85;2.80;;;;;;;-141.84;51.24;21911.78;5063674;28;20296;-64
2023/07/27 09:45:21;;;;;;;3.08;2.33;;;;;;;-141.84;51.38;21846.72;5063483;28;20229;-62
2023/07/27 09:47:53;;;;;;;3.10;2.60;;;;;;;-141.84;53.16;21793.84;5048458;28;20222;-64
2023/07/27 09:50:22;;;;;;;3.05;2.65;;;;;;;-141.84;55.08;21767.44;5052778;28;20220;-66
2023/07/27 09:52:51;;;;;;;2.97;2.38;;;;;;;-141.84;54.50;21753.19;5062629;28;20270;-64
2023/07/27 09:55:20;;;;;;;4.75;2.60;;;;;;;-141.84;53.29;21814.19;5063192;28;20232;-64
2023/07/27 09:57:51;;;;;;;4.75;2.40;;;;;;;-141.84;53.15;21759.28;5067840;28;20207;-64
2023/07/27 10:00:20;;;;;;;3.67;2.78;;;;;;;-141.84;52.65;21793.84;5072982;28;20247;-64
2023/07/27 10:02:48;;;;;;;2.83;2.53;;;;;;;-141.84;52.47;21812.16;5062717;28;20701;-65
2023/07/27 10:05:19;;;;;;;3.65;2.08;;;;;;;-141.84;51.99;21826.41;5062245;28;20232;-66
2023/07/27 10:07:48;;;;;;;3.75;2.50;;;;;;;-141.84;51.41;21887.41;5067224;28;20745;-64
2023/07/27 10:10:27;;;;;;;3.08;2.80;;;;;;;-141.84;50.85;21952.47;5075720;28;20239;-64
2023/07/27 10:12:59;;;;;;;3.03;2.63;;;;;;;-141.84;51.35;21989.06;5063564;28;20247;-65
2023/07/27 10:15:28;;;;;;;3.03;2.60;;;;;;;-141.84;52.13;21944.34;5050170;28;20327;-65
2023/07/27 10:17:58;;;;;;;3.00;2.40;;;;;;;-141.84;51.52;21932.13;5053910;28;20236;-64
2023/07/27 10:20:31;;;;;;;2.75;2.42;;;;;;;-141.84;52.73;21930.09;5062499;28;20235;-64
2023/07/27 10:23:10;;;;;;;4.47;2.50;;;;;;;-141.84;52.44;21974.84;5062803;28;20232;-64
2023/07/27 10:26:00;;;;;;;2.72;2.53;;;;;;;-141.84;54.07;21974.84;5046488;28;20251;-64
2023/07/27 10:28:36;;;;;;;3.05;2.75;;;;;;;-141.84;53.29;21980.94;5042577;28;20216;-65
2023/07/27 10:31:23;;;;;;;2.80;2.40;;;;;;;-141.84;53.93;22046.00;5043425;28;20205;-64
2023/07/27 10:33:57;;;;;;;3.50;2.35;;;;;;;-141.84;55.07;22003.31;5035043;28;20225;-64
2023/07/27 10:36:56;;;;;;;3.80;3.05;;;;;;;-141.84;54.29;22009.41;5042357;28;20287;-63
2023/07/27 10:39:28;;;;;;;4.10;2.70;;;;;;;-141.84;54.55;21897.56;5061911;28;20239;-64
2023/07/27 10:42:05;;;;;;;3.28;2.97;;;;;;;-141.84;56.74;21869.09;5054447;28;20232;-66
2023/07/27 10:44:45;;;;;;;3.95;2.88;;;;;;;-141.84;56.46;21980.94;5062218;28;20282;-64
2023/07/27 10:47:16;;;;;;;3.25;2.70;;;;;;;-141.84;56.59;22005.34;5061791;28;20234;-64
2023/07/27 10:49:46;;;;;;;4.25;2.90;;;;;;;-141.84;55.02;22048.03;5069981;28;20295;-64
2023/07/27 10:52:20;;;;;;;3.20;2.83;;;;;;;-141.84;56.60;21976.88;5058532;28;20209;-64
2023/07/27 10:54:50;;;;;;;2.97;2.67;;;;;;;-141.84;58.44;21867.06;5054093;28;20232;-64
2023/07/27 10:57:20;;;;;;;6.47;3.22;;;;;;;-141.84;60.03;21814.19;5059341;28;20240;-64
2023/07/27 10:59:50;;;;;;;4.97;2.90;;;;;;;-141.84;61.55;21710.50;5070756;28;20242;-65
2023/07/27 11:02:21;;;;;;;3.60;3.30;;;;;;;-141.84;63.27;21653.56;5068394;28;20712;-65
2023/07/27 11:04:50;;;;;;;4.93;3.22;;;;;;;-141.84;64.51;21523.44;5063970;28;20251;-63
2023/07/27 11:07:33;;;;;;;4.30;2.85;;;;;;;-141.84;67.06;21440.06;5064651;28;20313;-64
2023/07/27 11:10:06;;;;;;;3.80;3.28;;;;;;;-141.84;69.26;21401.44;5054392;28;20252;-64
2023/07/27 11:12:46;;;;;;;5.57;3.05;;;;;;;-141.84;70.68;21387.19;5061452;28;20224;-64
2023/07/27 11:15:18;;;;;;;3.03;2.72;;;;;;;-141.84;68.02;21322.13;5055346;28;20666;-63
2023/07/27 11:17:46;;;;;;;3.30;3.00;;;;;;;-141.84;69.89;21287.56;5059908;28;20228;-64
2023/07/27 11:20:18;;;;;;;3.88;3.10;;;;;;;-141.84;69.90;21220.47;5062039;28;20225;-65
2023/07/27 11:22:48;;;;;;;3.17;2.70;;;;;;;-141.84;70.62;21173.72;5062332;28;20232;-64
2023/07/27 11:25:17;;;;;;;3.35;2.92;;;;;;;-141.84;70.08;21171.69;5067167;28;20215;-64
2023/07/27 11:27:49;;;;;;;3.53;3.20;;;;;;;-141.84;72.69;21102.56;5078295;28;20315;-65
2023/07/27 11:30:21;;;;;;;3.13;2.83;;;;;;;-141.84;74.18;21009.03;5064250;28;20228;-64